Time;durP1;ratioP1;P1;durP2;ratioP2;P2;SDS_P1;SDS_P2;PMS_P1;PMS_P2;Temp;Humidity;BMP_temperature;BMP_pressure;BME280_temperature;BME280_humidity;BME280_pressure;Samples;Min_cycle;Max_cycle;Signal;HPM_P1;HPM_P2
2021/04/12 00:01:50;;;;;;;;;;;;;;;9.17;75.67;101501.90;1779614;81;20183;-62
2021/04/12 00:04:49;;;;;;;;;;;;;;;9.18;75.71;101504.89;1779635;81;20262;-62
2021/04/12 00:07:27;;;;;;;;;;;;;;;9.22;75.77;101493.77;1777908;81;20239;-64
2021/04/12 00:10:08;;;;;;;;;;;;;;;9.24;75.78;101498.45;1778036;80;20251;-62
2021/04/12 00:12:43;;;;;;;;;;;;;;;9.25;75.87;101491.81;1778613;81;20231;-63
2021/04/12 00:15:27;;;;;;;;;;;;;;;9.26;75.98;101486.12;1779789;81;20243;-64
2021/04/12 00:18:02;;;;;;;;;;;;;;;9.26;75.97;101480.90;1778797;81;20235;-64
2021/04/12 00:20:49;;;;;;;;;;;;;;;9.27;75.95;101487.32;1779412;81;20242;-64
2021/04/12 00:23:43;;;;;;;;;;;;;;;9.29;75.99;101482.02;1779146;81;20164;-65
2021/04/12 00:26:30;;;;;;;;;;;;;;;9.28;76.01;101482.48;1772587;81;20168;-64
2021/04/12 00:29:25;;;;;;;;;;;;;;;9.29;75.99;101468.95;1728107;81;20560;-63
2021/04/12 00:32:07;;;;;;;;;;;;;;;9.27;75.96;101464.27;1777952;80;20439;-65
2021/04/12 00:34:54;;;;;;;;;;;;;;;9.25;76.04;101459.61;1779815;81;20238;-63
2021/04/12 00:37:38;;;;;;;;;;;;;;;9.25;76.04;101462.22;1778723;81;20677;-62
2021/04/12 00:40:23;;;;;;;;;;;;;;;9.22;76.13;101456.72;1777496;81;20167;-63
2021/04/12 00:43:11;;;;;;;;;;;;;;;9.21;76.16;101454.22;1778993;81;20263;-64
2021/04/12 00:46:19;;;;;;;;;;;;;;;9.18;76.27;101453.95;1779471;80;20679;-63
2021/04/12 00:48:57;;;;;;;;;;;;;;;9.16;76.33;101447.98;1774528;80;20160;-63
2021/04/12 00:51:48;;;;;;;;;;;;;;;9.16;76.39;101449.75;1776248;81;20327;-64
2021/04/12 00:54:43;;;;;;;;;;;;;;;9.14;76.52;101447.71;1744283;81;20231;-62
2021/04/12 00:57:27;;;;;;;;;;;;;;;9.11;76.55;101442.67;1775903;81;20228;-61
2021/04/12 01:00:11;;;;;;;;;;;;;;;9.04;76.68;101437.02;1776243;81;20231;-62
2021/04/12 01:03:06;;;;;;;;;;;;;;;9.00;76.71;101425.55;1775826;81;20155;-62
2021/04/12 01:05:59;;;;;;;;;;;;;;;8.93;76.95;101419.05;1775388;81;20180;-63
2021/04/12 01:08:36;;;;;;;;;;;;;;;8.86;77.18;101412.04;1774993;81;20653;-62
2021/04/12 01:11:28;;;;;;;;;;;;;;;8.79;77.37;101407.68;1775970;81;20240;-62
2021/04/12 01:14:09;;;;;;;;;;;;;;;8.76;77.62;101405.75;1775710;81;20541;-61
2021/04/12 01:16:53;;;;;;;;;;;;;;;8.70;77.73;101403.05;1775787;81;20247;-61
2021/04/12 01:19:49;;;;;;;;;;;;;;;8.67;77.85;101401.92;1774710;81;20275;-62
2021/04/12 01:22:36;;;;;;;;;;;;;;;8.64;78.01;101402.59;1776239;81;20259;-62
2021/04/12 01:25:37;;;;;;;;;;;;;;;8.62;78.20;101397.95;1775907;81;20636;-63
2021/04/12 01:28:28;;;;;;;;;;;;;;;8.60;78.42;101397.17;1775558;81;20176;-63
2021/04/12 01:31:23;;;;;;;;;;;;;;;8.56;78.61;101387.41;1776192;81;20167;-62
2021/04/12 01:34:07;;;;;;;;;;;;;;;8.53;78.76;101388.90;1775183;81;20231;-61
2021/04/12 01:36:58;;;;;;;;;;;;;;;8.51;78.97;101379.02;1746554;81;20223;-62
2021/04/12 01:39:51;;;;;;;;;;;;;;;8.47;79.05;101381.47;1774851;81;20206;-62
2021/04/12 01:42:27;;;;;;;;;;;;;;;8.44;79.15;101379.50;1774315;81;20228;-64
2021/04/12 01:45:08;;;;;;;;;;;;;;;8.39;79.41;101374.56;1774604;81;20172;-64
2021/04/12 01:47:52;;;;;;;;;;;;;;;8.36;79.49;101366.92;1776308;81;20191;-61
2021/04/12 01:50:36;;;;;;;;;;;;;;;8.33;79.63;101376.27;1778097;81;20659;-62
2021/04/12 01:53:30;;;;;;;;;;;;;;;8.31;79.86;101374.19;1779461;81;20163;-64
2021/04/12 01:56:24;;;;;;;;;;;;;;;8.29;80.04;101369.54;1777707;81;20234;-62
2021/04/12 01:59:28;;;;;;;;;;;;;;;8.29;80.22;101377.36;1778159;81;20227;-62
2021/04/12 02:02:07;;;;;;;;;;;;;;;8.30;80.46;101369.08;1779666;81;20239;-63
2021/04/12 02:05:08;;;;;;;;;;;;;;;8.31;80.76;101375.49;1778744;81;20258;-61
2021/04/12 02:07:52;;;;;;;;;;;;;;;8.32;81.01;101365.44;1779688;81;20235;-62
2021/04/12 02:10:36;;;;;;;;;;;;;;;8.37;81.23;101364.70;1778018;81;20219;-63
2021/04/12 02:13:20;;;;;;;;;;;;;;;8.42;81.28;101365.71;1779652;81;20231;-65
2021/04/12 02:16:24;;;;;;;;;;;;;;;8.48;81.31;101373.14;1779534;81;20274;-62
2021/04/12 02:19:16;;;;;;;;;;;;;;;8.53;81.34;101378.92;1777554;81;20175;-61
2021/04/12 02:22:13;;;;;;;;;;;;;;;8.59;81.30;101383.77;1778026;80;20171;-62
2021/04/12 02:24:55;;;;;;;;;;;;;;;8.66;81.18;101392.89;1778994;81;20195;-61
2021/04/12 02:27:39;;;;;;;;;;;;;;;8.72;81.10;101406.39;1778760;81;20384;-65
2021/04/12 02:30:16;;;;;;;;;;;;;;;8.77;80.93;101420.00;1775807;81;20280;-62
2021/04/12 02:33:13;;;;;;;;;;;;;;;8.85;80.90;101419.98;1777023;81;20274;-61
2021/04/12 02:36:04;;;;;;;;;;;;;;;8.96;80.77;101424.89;1734854;81;20278;-61
2021/04/12 02:38:45;;;;;;;;;;;;;;;9.06;80.53;101417.31;1774695;81;20356;-63
2021/04/12 02:41:21;;;;;;;;;;;;;;;9.12;80.27;101416.44;1775511;81;20238;-64
2021/04/12 02:44:29;;;;;;;;;;;;;;;9.14;80.12;101413.29;1775039;81;20765;-63
2021/04/12 02:47:23;;;;;;;;;;;;;;;9.14;79.96;101411.14;1773690;81;20203;-64
2021/04/12 02:50:18;;;;;;;;;;;;;;;9.09;79.88;101400.14;1771140;80;20211;-66
2021/04/12 02:53:06;;;;;;;;;;;;;;;9.01;79.89;101415.45;1772117;81;20401;-65
2021/04/12 02:56:02;;;;;;;;;;;;;;;8.94;80.00;101426.77;1770571;81;20390;-66
2021/04/12 02:59:05;;;;;;;;;;;;;;;8.95;80.16;101437.59;1770237;81;20809;-65
2021/04/12 03:01:50;;;;;;;;;;;;;;;8.99;80.15;101435.16;1742607;81;20306;-65
2021/04/12 03:04:31;;;;;;;;;;;;;;;9.06;80.18;101427.76;1771297;81;20204;-65
2021/04/12 03:07:12;;;;;;;;;;;;;;;9.15;80.06;101428.01;1772129;81;20238;-65
2021/04/12 03:09:50;;;;;;;;;;;;;;;9.23;79.83;101424.91;1772547;81;20231;-65
2021/04/12 03:12:33;;;;;;;;;;;;;;;9.29;79.65;101422.73;1742745;81;20199;-64
2021/04/12 03:15:26;;;;;;;;;;;;;;;9.34;79.39;101414.13;1771244;81;20266;-64
2021/04/12 03:18:11;;;;;;;;;;;;;;;9.34;79.11;101420.66;1754689;81;20271;-63
2021/04/12 03:20:52;;;;;;;;;;;;;;;9.35;78.99;101418.89;1772985;81;20274;-66
2021/04/12 03:24:01;;;;;;;;;;;;;;;9.36;78.80;101411.43;1741330;81;20282;-67
2021/04/12 03:26:45;;;;;;;;;;;;;;;9.35;78.65;101409.74;1770631;81;20278;-64
2021/04/12 03:29:23;;;;;;;;;;;;;;;9.37;78.62;101407.86;1769599;81;20687;-63
2021/04/12 03:32:13;;;;;;;;;;;;;;;9.38;78.66;101409.55;1772937;81;20258;-62
2021/04/12 03:34:52;;;;;;;;;;;;;;;9.42;78.62;101413.16;1772529;81;20302;-65
2021/04/12 03:37:33;;;;;;;;;;;;;;;9.48;78.49;101414.05;1771971;81;20270;-65
2021/04/12 03:40:29;;;;;;;;;;;;;;;9.57;78.34;101411.32;1772081;81;20195;-65
2021/04/12 03:43:28;;;;;;;;;;;;;;;9.67;78.09;101414.16;1771818;81;20404;-64
2021/04/12 03:46:09;;;;;;;;;;;;;;;9.79;77.93;101408.92;1771668;81;20411;-66
2021/04/12 03:49:16;;;;;;;;;;;;;;;9.95;77.64;101410.90;1773124;81;20270;-64
2021/04/12 03:52:11;;;;;;;;;;;;;;;10.13;77.34;101421.44;1771425;81;20314;-64
2021/04/12 03:54:55;;;;;;;;;;;;;;;10.37;76.74;101414.98;1774121;81;20264;-66
2021/04/12 03:57:52;;;;;;;;;;;;;;;10.62;76.06;101424.59;1776105;81;20411;-65
2021/04/12 04:00:46;;;;;;;;;;;;;;;10.83;75.33;101417.36;1774072;81;20179;-65
2021/04/12 04:03:30;;;;;;;;;;;;;;;11.10;74.63;101407.14;1773552;81;20305;-65
2021/04/12 04:06:35;;;;;;;;;;;;;;;11.39;73.82;101403.23;1772055;81;20315;-64
2021/04/12 04:09:30;;;;;;;;;;;;;;;11.66;72.84;101414.74;1771626;81;20219;-65
2021/04/12 04:12:21;;;;;;;;;;;;;;;11.99;71.80;101426.66;1770184;81;20274;-66
2021/04/12 04:15:24;;;;;;;;;;;;;;;12.29;70.47;101409.89;1771654;81;20310;-66
2021/04/12 04:18:17;;;;;;;;;;;;;;;12.57;69.33;101412.50;1775164;81;20609;-67
2021/04/12 04:21:05;;;;;;;;;;;;;;;12.90;68.31;101410.31;1774210;81;20581;-67
2021/04/12 04:23:52;;;;;;;;;;;;;;;13.21;66.90;101403.78;1772916;81;20346;-65
2021/04/12 04:26:43;;;;;;;;;;;;;;;13.47;65.40;101406.90;1772593;81;20398;-64
2021/04/12 04:29:41;;;;;;;;;;;;;;;13.71;64.44;101402.73;1770135;81;20412;-66
2021/04/12 04:32:20;;;;;;;;;;;;;;;13.93;63.45;101388.94;1770093;81;20283;-66
2021/04/12 04:34:59;;;;;;;;;;;;;;;14.24;62.63;101379.73;1771879;81;20271;-65
2021/04/12 04:37:46;;;;;;;;;;;;;;;14.50;61.41;101382.28;1770187;81;20764;-66
2021/04/12 04:40:23;;;;;;;;;;;;;;;14.73;60.31;101395.14;1771570;81;20326;-65
2021/04/12 04:43:11;;;;;;;;;;;;;;;14.97;59.60;101393.92;1771731;81;20345;-66
2021/04/12 04:45:58;;;;;;;;;;;;;;;15.25;58.51;101389.16;1771353;81;20805;-66
2021/04/12 04:48:40;;;;;;;;;;;;;;;15.58;57.79;101379.52;1771673;81;20267;-68
2021/04/12 04:51:50;;;;;;;;;;;;;;;15.84;56.15;101377.94;1770274;80;20211;-70
2021/04/12 04:58:16;;;;;;;;;;;;;;;16.59;54.47;101391.05;1771617;81;20688;-61
2021/04/12 05:00:57;;;;;;;;;;;;;;;17.25;52.65;101388.08;1771162;81;20387;-65
2021/04/12 05:03:41;;;;;;;;;;;;;;;17.68;51.06;101401.39;1775645;81;20275;-62
2021/04/12 05:06:41;;;;;;;;;;;;;;;17.99;49.88;101405.74;1771631;81;20390;-67
2021/04/12 05:09:25;;;;;;;;;;;;;;;18.34;48.66;101400.30;1794256;80;20221;-64
2021/04/12 05:12:32;;;;;;;;;;;;;;;18.64;47.62;101397.17;1795974;80;20268;-68
2021/04/12 05:15:14;;;;;;;;;;;;;;;19.07;46.75;101389.97;1795522;79;20201;-73
2021/04/12 05:17:58;;;;;;;;;;;;;;;19.65;45.73;101392.53;1795751;80;20773;-65
2021/04/12 05:20:37;;;;;;;;;;;;;;;20.15;44.23;101379.33;1796838;80;20268;-68
2021/04/12 05:23:44;;;;;;;;;;;;;;;20.53;43.13;101378.20;1795346;80;20284;-70
2021/04/12 05:26:25;;;;;;;;;;;;;;;20.96;41.61;101376.80;1796792;80;20295;-71
2021/04/12 05:29:09;;;;;;;;;;;;;;;21.31;40.84;101370.42;1796865;80;20328;-66
2021/04/12 05:31:50;;;;;;;;;;;;;;;21.72;40.42;101375.39;1796369;80;20280;-72
2021/04/12 05:34:59;;;;;;;;;;;;;;;22.28;39.23;101361.48;1800158;80;20300;-69
2021/04/12 05:37:52;;;;;;;;;;;;;;;22.65;38.14;101356.52;1796150;80;20264;-67
2021/04/12 05:40:49;;;;;;;;;;;;;;;23.01;36.80;101357.84;1797288;80;20402;-73
2021/04/12 05:43:24;;;;;;;;;;;;;;;23.21;35.82;101362.87;1795693;80;20814;-70
2021/04/12 05:46:39;;;;;;;;;;;;;;;23.44;35.76;101357.66;1796974;80;20284;-71
2021/04/12 05:53:26;;;;;;;;;;;;;;;24.05;34.15;101351.18;1795380;80;20352;-68
2021/04/12 05:56:37;;;;;;;;;;;;;;;24.29;33.72;101349.92;1795243;78;20284;-70
2021/04/12 05:59:33;;;;;;;;;;;;;;;24.56;32.83;101348.98;1795190;80;20424;-71
2021/04/12 06:02:27;;;;;;;;;;;;;;;24.85;31.87;101338.49;1796697;80;20241;-66
2021/04/12 06:09:29;;;;;;;;;;;;;;;25.24;31.76;101332.66;1763823;81;20215;-70
2021/04/12 06:12:28;;;;;;;;;;;;;;;25.73;30.83;101330.92;1764949;81;20271;-69
2021/04/12 06:15:25;;;;;;;;;;;;;;;26.20;30.14;101328.44;1755760;81;20811;-68
2021/04/12 06:18:18;;;;;;;;;;;;;;;26.54;28.92;101323.23;1764754;81;20317;-62
2021/04/12 06:21:12;;;;;;;;;;;;;;;26.65;28.32;101322.03;1764048;81;20318;-71
2021/04/12 06:24:57;;;;;;;;;;;;;;;26.54;28.06;101316.52;1766448;81;20203;-70
2021/04/12 06:27:50;;;;;;;;;;;;;;;26.51;28.22;101317.77;1765284;81;20682;-67
2021/04/12 06:30:31;;;;;;;;;;;;;;;26.35;28.52;101315.59;1765702;81;20319;-64
2021/04/12 06:33:19;;;;;;;;;;;;;;;26.43;28.46;101314.01;1767769;81;20287;-69
2021/04/12 06:36:16;;;;;;;;;;;;;;;26.65;27.75;101317.20;1766242;81;20271;-70
2021/04/12 06:38:57;;;;;;;;;;;;;;;26.80;27.39;101292.77;1764254;81;20276;-70
2021/04/12 06:42:06;;;;;;;;;;;;;;;26.87;27.00;101314.48;1765561;81;20278;-70
2021/04/12 06:44:57;;;;;;;;;;;;;;;26.69;26.96;101303.12;1765688;81;20647;-72
2021/04/12 06:47:57;;;;;;;;;;;;;;;26.69;26.81;101317.06;1765533;81;20259;-70
2021/04/12 06:50:49;;;;;;;;;;;;;;;26.57;27.18;101310.73;1765765;81;20207;-72
2021/04/12 06:53:56;;;;;;;;;;;;;;;26.51;27.56;101321.80;1764363;81;20220;-75
2021/04/12 06:56:43;;;;;;;;;;;;;;;26.74;27.17;101326.65;1765713;81;20421;-65
2021/04/12 06:59:22;;;;;;;;;;;;;;;27.07;26.91;101329.97;1710434;81;20319;-67
2021/04/12 07:02:33;;;;;;;;;;;;;;;27.33;26.21;101326.23;1770558;81;20214;-66
2021/04/12 07:05:14;;;;;;;;;;;;;;;27.66;25.96;101325.96;1764095;80;20299;-72
2021/04/12 07:08:08;;;;;;;;;;;;;;;28.31;25.09;101328.48;1765394;81;20431;-69
2021/04/12 07:10:59;;;;;;;;;;;;;;;28.58;24.50;101315.80;1757202;80;20211;-72
2021/04/12 07:13:46;;;;;;;;;;;;;;;28.59;24.14;101320.64;1769204;80;20808;-71
2021/04/12 07:16:45;;;;;;;;;;;;;;;28.47;24.11;101304.44;1767616;80;20394;-67
2021/04/12 07:19:40;;;;;;;;;;;;;;;28.49;24.27;101305.57;1772472;81;20211;-67
2021/04/12 07:22:29;;;;;;;;;;;;;;;28.77;23.92;101299.59;1773917;81;20191;-63
2021/04/12 07:25:39;;;;;;;;;;;;;;;28.93;23.55;101302.97;1772065;81;20807;-71
2021/04/12 07:28:20;;;;;;;;;;;;;;;28.94;23.54;101299.23;1773471;81;20680;-66
2021/04/12 07:31:16;;;;;;;;;;;;;;;29.05;22.55;101309.21;1776691;81;20242;-71
2021/04/12 07:34:22;;;;;;;;;;;;;;;28.69;22.75;101305.61;1772274;81;20770;-65
2021/04/12 07:37:18;;;;;;;;;;;;;;;28.40;23.00;101321.20;1773980;81;20282;-69
2021/04/12 07:40:27;;;;;;;;;;;;;;;28.08;23.90;101308.99;1772694;81;20310;-63
2021/04/12 07:43:36;;;;;;;;;;;;;;;28.28;23.42;101323.57;1773367;81;20214;-60
2021/04/12 07:46:17;;;;;;;;;;;;;;;28.12;23.54;101311.52;1773779;81;20681;-64
2021/04/12 07:49:17;;;;;;;;;;;;;;;28.18;23.91;101309.81;1772296;81;20290;-60
2021/04/12 07:52:18;;;;;;;;;;;;;;;28.42;23.53;101325.84;1736670;81;20421;-66
2021/04/12 07:55:16;;;;;;;;;;;;;;;28.49;23.34;101321.19;1772360;81;20270;-64
2021/04/12 07:58:07;;;;;;;;;;;;;;;28.41;23.43;101324.73;1774170;81;20386;-68
2021/04/12 08:00:59;;;;;;;;;;;;;;;28.67;23.07;101325.75;1774247;81;20420;-69
2021/04/12 08:03:51;;;;;;;;;;;;;;;28.74;23.07;101324.30;1772722;81;20226;-71
2021/04/12 08:06:46;;;;;;;;;;;;;;;28.62;22.85;101322.92;1773637;79;20299;-72
2021/04/12 08:09:27;;;;;;;;;;;;;;;28.55;22.64;101331.06;1773016;81;20665;-69
2021/04/12 08:12:31;;;;;;;;;;;;;;;28.49;22.93;101319.05;1773584;81;20208;-72
2021/04/12 08:15:22;;;;;;;;;;;;;;;28.28;23.13;101318.98;1772566;81;20196;-64
2021/04/12 08:17:57;;;;;;;;;;;;;;;27.47;23.62;101335.04;1769998;80;20582;-62
2021/04/12 08:20:53;;;;;;;;;;;;;;;26.58;24.75;101311.05;1768086;80;20411;-64
2021/04/12 08:23:51;;;;;;;;;;;;;;;26.06;25.18;101316.91;1736226;80;20289;-60
2021/04/12 08:26:56;;;;;;;;;;;;;;;25.49;26.03;101319.50;1731209;82;20299;-59
2021/04/12 08:30:00;;;;;;;;;;;;;;;25.20;26.46;101310.50;1736661;82;20499;-64
2021/04/12 08:33:10;;;;;;;;;;;;;;;24.83;27.11;101301.71;1737291;82;20184;-64
2021/04/12 08:36:10;;;;;;;;;;;;;;;24.39;27.40;101303.01;1735779;82;20192;-67
2021/04/12 08:39:04;;;;;;;;;;;;;;;23.91;27.83;101314.69;1736684;82;20781;-69
2021/04/12 08:41:49;;;;;;;;;;;;;;;23.54;28.18;101293.69;1734651;82;20399;-66
2021/04/12 08:44:41;;;;;;;;;;;;;;;23.37;28.53;101296.66;1734720;82;20391;-64
2021/04/12 08:47:19;;;;;;;;;;;;;;;23.50;27.93;101291.89;1735372;82;20412;-62
2021/04/12 08:50:18;;;;;;;;;;;;;;;23.55;27.66;101291.34;1736208;82;20284;-66
2021/04/12 08:53:19;;;;;;;;;;;;;;;23.83;27.71;101280.92;1736977;82;20294;-60
2021/04/12 08:55:56;;;;;;;;;;;;;;;24.30;27.15;101279.30;1740990;82;20273;-70
2021/04/12 08:59:05;;;;;;;;;;;;;;;24.88;26.65;101272.47;1737900;82;20308;-66
2021/04/12 09:02:14;;;;;;;;;;;;;;;25.39;26.37;101265.44;1735215;82;20288;-69
2021/04/12 09:05:10;;;;;;;;;;;;;;;26.00;25.25;101268.13;1735708;82;20280;-69
2021/04/12 09:07:48;;;;;;;;;;;;;;;26.38;24.71;101276.23;1730020;82;20236;-63
2021/04/12 09:10:56;;;;;;;;;;;;;;;26.63;24.51;101266.36;1735869;82;20200;-67
2021/04/12 09:13:59;;;;;;;;;;;;;;;26.76;24.10;101269.52;1757743;81;20803;-70
2021/04/12 09:16:40;;;;;;;;;;;;;;;26.74;23.68;101276.95;1763232;81;20179;-63
2021/04/12 09:19:22;;;;;;;;;;;;;;;26.82;23.67;101280.72;1764798;81;20230;-69
2021/04/12 09:22:10;;;;;;;;;;;;;;;26.81;23.33;101270.20;1763163;81;20226;-66
2021/04/12 09:25:11;;;;;;;;;;;;;;;26.69;23.87;101272.23;1720038;80;20219;-67
2021/04/12 09:28:05;;;;;;;;;;;;;;;26.63;23.90;101273.08;1714149;82;20335;-65
2021/04/12 09:30:55;;;;;;;;;;;;;;;26.52;23.77;101269.75;1712792;82;20727;-63
2021/04/12 09:34:06;;;;;;;;;;;;;;;26.35;23.36;101257.03;1676346;83;20397;-64
2021/04/12 09:36:53;;;;;;;;;;;;;;;26.22;23.83;101284.79;1672392;84;20314;-68
2021/04/12 09:39:28;;;;;;;;;;;;;;;26.14;23.98;101264.88;1668352;84;20188;-67
2021/04/12 09:42:20;;;;;;;;;;;;;;;26.07;24.15;101269.43;1663851;84;20200;-60
2021/04/12 09:45:19;;;;;;;;;;;;;;;26.03;23.81;101285.11;1675956;85;20205;-64
2021/04/12 09:48:29;;;;;;;;;;;;;;;25.83;23.70;101273.64;1670922;84;20282;-70
2021/04/12 09:51:28;;;;;;;;;;;;;;;25.73;24.44;101297.39;1644917;84;20278;-63
2021/04/12 09:57:55;;;;;;;;;;;;;;;25.51;24.20;101321.45;1704678;84;20656;-70
2021/04/12 10:00:48;;;;;;;;;;;;;;;25.33;24.36;101288.56;1705197;84;20782;-65
2021/04/12 10:03:49;;;;;;;;;;;;;;;25.14;25.02;101276.50;1709124;84;20271;-66
2021/04/12 10:10:30;;;;;;;;;;;;;;;24.97;24.71;101281.95;1705402;84;20284;-63
2021/04/12 10:13:32;;;;;;;;;;;;;;;24.86;24.85;101286.58;1705287;84;20347;-67
2021/04/12 10:20:02;;;;;;;;;;;;;;;24.65;25.21;101270.13;1705329;84;20211;-67
2021/04/12 10:22:59;;;;;;;;;;;;;;;24.62;25.31;101272.69;1705042;84;20275;-67
2021/04/12 10:25:51;;;;;;;;;;;;;;;24.63;25.80;101261.47;1702715;84;20802;-63
2021/04/12 10:28:31;;;;;;;;;;;;;;;24.65;25.37;101284.84;1702711;84;20211;-65
2021/04/12 10:31:34;;;;;;;;;;;;;;;24.60;25.37;101257.85;1701798;83;20207;-62
2021/04/12 10:34:16;;;;;;;;;;;;;;;24.64;25.52;101269.83;1702915;84;20239;-63
2021/04/12 10:37:08;;;;;;;;;;;;;;;24.66;24.20;101271.78;1698753;84;20323;-68
2021/04/12 10:39:48;;;;;;;;;;;;;;;24.62;24.51;101257.16;1703051;84;20211;-62
2021/04/12 10:42:36;;;;;;;;;;;;;;;24.58;24.91;101255.90;1701643;84;20323;-70
2021/04/12 10:45:24;;;;;;;;;;;;;;;24.58;24.83;101254.05;1702245;84;20235;-67
2021/04/12 10:48:06;;;;;;;;;;;;;;;24.58;25.14;101251.38;1701153;84;20353;-62
2021/04/12 10:50:53;;;;;;;;;;;;;;;24.65;24.38;101242.84;1683554;84;20188;-69
2021/04/12 10:53:49;;;;;;;;;;;;;;;24.76;24.17;101245.44;1732023;82;20205;-62
2021/04/12 10:56:39;;;;;;;;;;;;;;;24.81;24.10;101241.67;1731786;83;20277;-61
2021/04/12 10:59:37;;;;;;;;;;;;;;;24.81;24.10;101224.26;1731531;83;20268;-62
2021/04/12 11:02:38;;;;;;;;;;;;;;;24.83;24.00;101250.83;1687008;83;20237;-62
2021/04/12 11:05:11;;;;;;;;;;;;;;;24.83;23.74;101240.11;1679132;85;20310;-60
2021/04/12 11:08:05;;;;;;;;;;;;;;;24.80;24.01;101233.31;1702415;84;20330;-62
2021/04/12 11:10:56;;;;;;;;;;;;;;;24.84;22.82;101233.73;1708253;84;20810;-61
2021/04/12 11:13:48;;;;;;;;;;;;;;;24.89;22.73;101212.49;1708120;84;20362;-72
2021/04/12 11:16:52;;;;;;;;;;;;;;;24.93;22.19;101229.31;1706995;84;20351;-64
2021/04/12 11:19:39;;;;;;;;;;;;;;;24.98;21.88;101223.33;1711697;84;20286;-67
2021/04/12 11:22:32;;;;;;;;;;;;;;;25.00;21.88;101235.49;1708346;84;20686;-61
2021/04/12 11:25:13;;;;;;;;;;;;;;;25.03;22.12;101209.61;1706759;84;20235;-67
2021/04/12 11:27:52;;;;;;;;;;;;;;;25.04;22.40;101208.59;1688690;84;20279;-66
2021/04/12 11:30:51;;;;;;;;;;;;;;;25.04;22.59;101204.56;1661477;85;20280;-66
2021/04/12 11:33:40;;;;;;;;;;;;;;;25.07;22.19;101204.67;1688240;85;20287;-68
2021/04/12 11:36:35;;;;;;;;;;;;;;;25.13;22.45;101209.19;1688837;85;20334;-73
2021/04/12 11:39:12;;;;;;;;;;;;;;;25.18;20.55;101216.09;1688359;85;20325;-68
2021/04/12 11:42:03;;;;;;;;;;;;;;;25.17;20.68;101212.58;1689468;85;20216;-66
2021/04/12 11:44:53;;;;;;;;;;;;;;;25.13;21.15;101217.22;1689637;85;20208;-68
2021/04/12 11:48:01;;;;;;;;;;;;;;;25.10;21.26;101225.70;1688960;85;20320;-68
2021/04/12 11:51:07;;;;;;;;;;;;;;;25.06;20.40;101204.34;1662500;85;20807;-62
2021/04/12 11:53:49;;;;;;;;;;;;;;;25.00;20.05;101207.88;1663194;86;20375;-67
2021/04/12 12:00:31;;;;;;;;;;;;;;;25.00;20.53;101187.78;1689613;85;20312;-62
2021/04/12 12:03:25;;;;;;;;;;;;;;;25.04;20.88;101190.34;1677523;85;20320;-63
2021/04/12 12:06:16;;;;;;;;;;;;;;;25.09;21.06;101199.92;1689151;83;20318;-61
2021/04/12 12:08:57;;;;;;;;;;;;;;;25.16;21.00;101188.67;1689380;85;20208;-66
2021/04/12 12:12:00;;;;;;;;;;;;;;;25.19;21.16;101194.97;1689606;85;20215;-62
2021/04/12 12:14:35;;;;;;;;;;;;;;;25.20;20.46;101201.95;1689843;85;20723;-62
2021/04/12 12:17:16;;;;;;;;;;;;;;;25.21;20.54;101185.69;1688583;85;20344;-67
2021/04/12 12:19:51;;;;;;;;;;;;;;;25.23;20.40;101222.98;1690294;85;20300;-71
2021/04/12 12:22:26;;;;;;;;;;;;;;;25.21;20.62;101214.34;1689591;85;20225;-64
2021/04/12 12:25:20;;;;;;;;;;;;;;;25.17;20.55;101203.20;1688673;83;20217;-66
2021/04/12 12:28:38;;;;;;;;;;;;;;;25.18;20.49;101210.22;1706247;83;20283;-72
2021/04/12 12:31:35;;;;;;;;;;;;;;;25.16;20.28;101182.81;1711096;84;20389;-68
2021/04/12 12:34:18;;;;;;;;;;;;;;;25.11;20.16;101193.33;1709732;84;20744;-70
2021/04/12 12:37:06;;;;;;;;;;;;;;;25.07;20.36;101183.23;1710183;84;20342;-69
2021/04/12 12:39:55;;;;;;;;;;;;;;;25.05;20.51;101204.06;1709166;83;20227;-65
2021/04/12 12:42:35;;;;;;;;;;;;;;;25.09;19.93;101230.23;1710634;84;20303;-70
2021/04/12 12:45:14;;;;;;;;;;;;;;;25.11;20.09;101196.01;1710939;84;20294;-65
2021/04/12 12:47:49;;;;;;;;;;;;;;;25.11;19.24;101197.34;1710060;84;20278;-71
2021/04/12 12:50:23;;;;;;;;;;;;;;;25.09;19.55;101207.96;1711794;84;20754;-67
2021/04/12 12:52:58;;;;;;;;;;;;;;;25.02;19.94;101205.30;1710566;84;20389;-72
2021/04/12 12:55:34;;;;;;;;;;;;;;;24.96;20.30;101217.36;1710892;84;20686;-72
2021/04/12 12:58:08;;;;;;;;;;;;;;;24.91;20.06;101217.95;1709630;84;20279;-69
2021/04/12 13:00:46;;;;;;;;;;;;;;;24.86;19.91;101215.60;1710951;84;20358;-71
2021/04/12 13:03:39;;;;;;;;;;;;;;;24.80;20.17;101217.23;1710367;84;20287;-67
2021/04/12 13:06:20;;;;;;;;;;;;;;;24.80;20.50;101215.07;1710239;82;20398;-68
2021/04/12 13:09:02;;;;;;;;;;;;;;;24.79;20.41;101231.64;1710075;84;20220;-75
2021/04/12 13:11:40;;;;;;;;;;;;;;;24.76;20.21;101218.66;1711155;84;20271;-74
2021/04/12 13:14:25;;;;;;;;;;;;;;;24.71;20.13;101236.68;1710357;84;20211;-68
2021/04/12 13:17:00;;;;;;;;;;;;;;;24.71;20.39;101215.77;1711395;84;20327;-65
2021/04/12 13:19:45;;;;;;;;;;;;;;;24.69;20.36;101228.54;1710542;84;20833;-66
2021/04/12 13:22:22;;;;;;;;;;;;;;;24.66;19.80;101243.16;1708204;84;20387;-67
2021/04/12 13:24:54;;;;;;;;;;;;;;;24.64;19.97;101222.46;1709810;84;20683;-66
2021/04/12 13:27:28;;;;;;;;;;;;;;;24.63;20.33;101250.77;1707524;84;20279;-68
2021/04/12 13:30:02;;;;;;;;;;;;;;;24.59;20.41;101250.87;1689146;85;20784;-69
2021/04/12 13:32:37;;;;;;;;;;;;;;;24.56;20.75;101225.83;1689786;85;20360;-73
2021/04/12 13:35:14;;;;;;;;;;;;;;;24.55;20.70;101255.78;1689270;85;20317;-71
2021/04/12 13:37:52;;;;;;;;;;;;;;;24.51;20.93;101243.02;1688812;85;20639;-71
2021/04/12 13:40:30;;;;;;;;;;;;;;;24.43;21.24;101241.88;1688402;85;20231;-68
2021/04/12 13:43:05;;;;;;;;;;;;;;;24.36;19.49;101279.84;1689882;85;20273;-65
2021/04/12 13:45:42;;;;;;;;;;;;;;;24.22;19.50;101290.20;1692523;85;20678;-73
2021/04/12 13:48:23;;;;;;;;;;;;;;;24.08;20.27;101271.91;1689504;85;20286;-62
2021/04/12 13:51:07;;;;;;;;;;;;;;;23.94;20.91;101253.61;1669631;85;20305;-63
2021/04/12 13:53:57;;;;;;;;;;;;;;;23.86;21.39;101275.70;1689457;85;20671;-74
2021/04/12 14:00:46;;;;;;;;;;;;;;;23.74;21.92;101306.69;1688067;85;20220;-64
2021/04/12 14:03:24;;;;;;;;;;;;;;;23.68;22.32;101285.56;1687979;85;20236;-64
2021/04/12 14:09:55;;;;;;;;;;;;;;;23.67;22.09;101287.10;1688750;84;20232;-66
2021/04/12 14:12:29;;;;;;;;;;;;;;;23.64;21.87;101265.59;1689877;85;20352;-65
2021/04/12 14:15:12;;;;;;;;;;;;;;;23.62;22.18;101268.15;1689357;85;20287;-65
2021/04/12 14:17:51;;;;;;;;;;;;;;;23.57;22.55;101284.78;1683126;85;20241;-66
2021/04/12 14:20:36;;;;;;;;;;;;;;;23.58;22.75;101261.02;1687384;85;20376;-66
2021/04/12 14:23:23;;;;;;;;;;;;;;;23.58;23.13;101285.58;1688461;85;20208;-63
2021/04/12 14:26:00;;;;;;;;;;;;;;;23.54;23.65;101286.50;1686769;85;20217;-63
2021/04/12 14:28:34;;;;;;;;;;;;;;;23.51;23.51;101318.95;1687384;84;20220;-64
2021/04/12 14:31:27;;;;;;;;;;;;;;;23.47;23.48;101282.95;1687158;85;20268;-65
2021/04/12 14:34:06;;;;;;;;;;;;;;;23.42;23.63;101287.55;1687999;85;20209;-65
2021/04/12 14:36:43;;;;;;;;;;;;;;;23.36;24.23;101319.55;1683764;85;20276;-65
2021/04/12 14:39:23;;;;;;;;;;;;;;;23.31;24.74;101316.09;1686822;85;20304;-64
2021/04/12 14:42:06;;;;;;;;;;;;;;;23.27;25.14;101318.84;1687643;85;20327;-64
2021/04/12 14:44:48;;;;;;;;;;;;;;;23.20;25.60;101311.28;1668214;85;20276;-63
2021/04/12 14:47:32;;;;;;;;;;;;;;;23.12;26.33;101311.41;1688397;85;20233;-63
2021/04/12 14:50:16;;;;;;;;;;;;;;;23.02;26.54;101344.31;1689234;85;20272;-63
2021/04/12 14:53:00;;;;;;;;;;;;;;;22.93;26.10;101341.95;1688844;85;20323;-66
2021/04/12 14:55:50;;;;;;;;;;;;;;;22.84;26.70;101323.88;1680700;85;20424;-64
2021/04/12 14:58:36;;;;;;;;;;;;;;;22.72;27.09;101344.91;1689592;85;20204;-63
2021/04/12 15:01:13;;;;;;;;;;;;;;;22.62;27.58;101346.21;1688480;85;20305;-64
2021/04/12 15:03:49;;;;;;;;;;;;;;;22.52;28.06;101339.00;1690027;85;20224;-62
2021/04/12 15:06:27;;;;;;;;;;;;;;;22.43;28.43;101342.77;1689427;83;20264;-64
2021/04/12 15:09:02;;;;;;;;;;;;;;;22.35;28.78;101329.55;1689752;85;20173;-63